首页
METAR-TAF:

METAR-TAF

机场 :

波尔多, 法国

纬度: 44-50N, 经度: 000-42W, 海拔: 49米

当前天气观测

该预报发布于28分钟前的19:00 UTC
风速6节,风向西转西南
温度 9°C
湿度 81%
气压 1033 hPa
能见度10公里或以上
少量云层高于2400英尺
散云层高于4600英尺

METAR: LFBD 181900Z AUTO 24006KT 9999 FEW024 SCT046 09/06 Q1033 NOSIG

时间: 20:28 (19:28 UTC)

预报

该预报发布于2小时和28分钟前的17:00 UTC
预报有效从18日的 18点(UTC)到 19日的 24点(UTC)
风速5节,风向西
能见度10公里或以上
散云层高于3000英尺
几率 30% :
短暂存在
从 18日的 18点(UTC)到 18日的 19点(UTC)
能見度: 6000
少量云层高于3000英尺, 塔状积云.
多云层高于4000英尺
小阵雨
几率 40%
从 19日的 21点(UTC)到 19日的 24点(UTC)
能見度: 3000
轻雾

TAF: LFBD 181700Z 1818/1924 26005KT 9999 SCT030 TX14/1914Z TN05/1924Z PROB30 TEMPO 1818/1819 6000 -SHRA FEW030TCU BKN040 PROB40 1921/1924 3000 BR

超过4000个机场的气象观测和天气预报(METAR&TAF报告)。

可查询的气象台以黄色和红色小点在地图上表示。

将鼠标移到小点上方,可查看气象台名称。

然后点击查看天气观测和预报。

如需切换地图:点击带黑十字的绿色按钮放大地图;点击带横线的绿色按钮缩小地图;或者点击绿色箭头查看邻近地区的地图。


METAR-TAF: